createdAt,value
2023-05-19T00:01:17.605Z,85.80
2023-05-19T00:04:02.301Z,87.50
2023-05-19T00:06:33.150Z,89.30
2023-05-19T00:09:09.552Z,90.00
2023-05-19T00:11:39.205Z,90.20
2023-05-19T00:14:09.540Z,90.20
2023-05-19T00:16:37.936Z,90.90
2023-05-19T00:19:06.553Z,91.30
2023-05-19T00:21:33.390Z,91.50
2023-05-19T00:24:00.289Z,91.90
2023-05-19T00:26:27.679Z,92.40
2023-05-19T00:28:55.085Z,93.20
2023-05-19T00:31:22.053Z,93.80
2023-05-19T00:33:48.914Z,94.40
2023-05-19T00:36:15.704Z,94.90
2023-05-19T00:38:42.651Z,95.30
2023-05-19T00:41:09.526Z,95.10
2023-05-19T00:43:36.288Z,95.10
2023-05-19T00:46:03.458Z,95.00
2023-05-19T00:48:30.279Z,94.90
2023-05-19T00:51:03.958Z,94.70
2023-05-19T00:53:35.346Z,94.60
2023-05-19T00:56:03.423Z,94.60
2023-05-19T00:58:33.026Z,94.50
2023-05-19T01:01:05.168Z,94.70
2023-05-19T01:03:35.654Z,94.60
2023-05-19T01:06:07.088Z,94.70
2023-05-19T01:08:38.311Z,95.30
2023-05-19T01:11:06.650Z,96.10
2023-05-19T01:13:36.072Z,96.70
2023-05-19T01:16:32.536Z,97.10
2023-05-19T01:19:35.132Z,97.20
2023-05-19T01:22:57.542Z,97.90
2023-05-19T01:26:15.981Z,98.40
2023-05-19T01:28:57.178Z,99.30
2023-05-19T01:31:25.524Z,99.70
2023-05-19T01:33:54.146Z,99.70
2023-05-19T01:36:25.910Z,99.40
2023-05-19T01:38:57.181Z,99.10
2023-05-19T01:41:26.120Z,98.60
2023-05-19T01:43:54.211Z,98.50
2023-05-19T01:46:21.971Z,98.70
2023-05-19T01:48:49.476Z,98.60
2023-05-19T01:51:16.382Z,98.50
2023-05-19T01:53:43.265Z,98.80
2023-05-19T01:56:10.525Z,99.10
2023-05-19T01:58:50.996Z,99.20
2023-05-19T02:01:47.634Z,99.50
2023-05-19T02:04:44.845Z,99.80
2023-05-19T02:07:30.880Z,99.90
2023-05-19T02:10:13.500Z,99.90
2023-05-19T02:12:41.418Z,99.90
2023-05-19T02:15:16.745Z,99.90
2023-05-19T02:17:51.653Z,99.90
2023-05-19T02:20:18.806Z,99.90
2023-05-19T02:22:45.872Z,99.90
2023-05-19T02:25:12.737Z,99.90
2023-05-19T02:27:40.260Z,99.90
2023-05-19T02:30:09.184Z,99.90
2023-05-19T02:32:36.434Z,99.90
2023-05-19T02:35:04.100Z,99.90
2023-05-19T02:37:31.113Z,99.90
2023-05-19T02:39:58.152Z,99.90
2023-05-19T02:42:24.932Z,99.90
2023-05-19T02:44:52.424Z,99.90
2023-05-19T02:47:19.291Z,99.90
2023-05-19T02:49:46.261Z,99.90
2023-05-19T02:52:13.036Z,99.90
2023-05-19T02:54:39.800Z,99.90
2023-05-19T02:57:06.772Z,99.90
2023-05-19T02:59:33.748Z,99.90
2023-05-19T03:02:02.363Z,99.90
2023-05-19T03:04:29.946Z,99.90
2023-05-19T03:06:59.902Z,99.90
2023-05-19T03:09:26.846Z,99.90
2023-05-19T03:11:53.628Z,99.90
2023-05-19T03:14:23.697Z,99.90
2023-05-19T03:16:50.765Z,99.90
2023-05-19T03:19:18.118Z,99.90
2023-05-19T03:21:44.972Z,99.90
2023-05-19T03:24:11.842Z,99.90
2023-05-19T03:26:38.893Z,99.90
2023-05-19T03:29:05.881Z,99.90
2023-05-19T03:31:32.640Z,99.90
2023-05-19T03:33:59.468Z,99.90
2023-05-19T03:36:32.041Z,99.90
2023-05-19T03:38:59.270Z,99.90
2023-05-19T03:41:26.082Z,99.90
2023-05-19T03:43:52.893Z,99.90
2023-05-19T03:46:19.845Z,99.90
2023-05-19T03:48:46.745Z,99.90
2023-05-19T03:51:13.550Z,99.90
2023-05-19T03:53:41.149Z,99.90
2023-05-19T03:56:08.835Z,99.90
2023-05-19T03:58:36.913Z,99.90
2023-05-19T04:01:03.738Z,99.90
2023-05-19T04:03:30.630Z,99.90
2023-05-19T04:05:57.430Z,99.90
2023-05-19T04:08:24.219Z,99.90
2023-05-19T04:10:50.982Z,99.90
2023-05-19T04:13:17.769Z,99.90
2023-05-19T04:15:44.668Z,99.90
2023-05-19T04:18:11.604Z,99.90
2023-05-19T04:20:38.398Z,99.90
2023-05-19T04:23:05.305Z,99.90
2023-05-19T04:25:33.358Z,99.90
2023-05-19T04:28:00.852Z,99.90
2023-05-19T04:30:28.511Z,99.90
2023-05-19T04:32:58.022Z,99.90
2023-05-19T04:35:25.043Z,99.90
2023-05-19T04:37:54.249Z,99.90
2023-05-19T04:40:23.565Z,99.90
2023-05-19T04:42:52.225Z,99.90
2023-05-19T04:45:19.134Z,99.90
2023-05-19T04:47:48.106Z,99.90
2023-05-19T04:50:16.349Z,99.90
2023-05-19T04:52:45.341Z,99.90
2023-05-19T04:55:13.210Z,99.90
2023-05-19T04:57:40.307Z,99.90
2023-05-19T05:00:12.062Z,99.90
2023-05-19T05:02:38.928Z,99.90
2023-05-19T05:05:06.499Z,99.90
2023-05-19T05:07:33.255Z,99.90
2023-05-19T05:09:59.996Z,99.90
2023-05-19T05:12:27.347Z,99.90
2023-05-19T05:14:54.459Z,99.90
2023-05-19T05:17:21.530Z,99.90
2023-05-19T05:19:48.868Z,99.90
2023-05-19T05:22:16.426Z,99.90
2023-05-19T05:24:43.521Z,99.90
2023-05-19T05:27:10.592Z,99.90
2023-05-19T05:29:37.579Z,99.90
2023-05-19T05:32:04.705Z,99.40
2023-05-19T05:34:31.891Z,98.50
2023-05-19T05:36:58.675Z,97.30
2023-05-19T05:39:25.566Z,96.70
2023-05-19T05:41:52.373Z,95.70
2023-05-19T05:44:19.126Z,95.40
2023-05-19T05:46:46.314Z,95.80
2023-05-19T05:49:13.533Z,95.30
2023-05-19T05:51:42.894Z,95.60
2023-05-19T05:54:13.216Z,94.70
2023-05-19T05:56:41.101Z,94.80
2023-05-19T05:59:07.890Z,94.20
2023-05-19T06:01:35.850Z,93.60
2023-05-19T06:04:02.762Z,93.30
2023-05-19T06:06:29.592Z,92.60
2023-05-19T06:08:56.364Z,92.10
2023-05-19T06:11:23.302Z,92.00
2023-05-19T06:13:50.052Z,91.80
2023-05-19T06:16:16.895Z,91.90
2023-05-19T06:18:43.861Z,92.00
2023-05-19T06:21:13.147Z,91.50
2023-05-19T06:23:41.052Z,91.80
2023-05-19T06:26:07.874Z,91.30
2023-05-19T06:28:34.786Z,91.20
2023-05-19T06:31:01.697Z,91.70
2023-05-19T06:33:29.345Z,91.70
2023-05-19T06:35:56.226Z,91.50
2023-05-19T06:38:23.074Z,91.20
2023-05-19T06:40:49.888Z,90.30
2023-05-19T06:43:16.715Z,90.40
2023-05-19T06:45:43.572Z,90.60
2023-05-19T06:48:10.466Z,90.30
2023-05-19T06:50:37.345Z,90.40
2023-05-19T06:53:04.148Z,89.30
2023-05-19T06:55:30.938Z,89.00
2023-05-19T06:57:57.784Z,88.00
2023-05-19T07:00:24.939Z,87.20
2023-05-19T07:02:51.801Z,86.90
2023-05-19T07:05:18.871Z,87.20
2023-05-19T07:07:45.639Z,84.70
2023-05-19T07:10:12.415Z,82.60
2023-05-19T07:12:39.193Z,83.10
2023-05-19T07:15:06.740Z,81.40
2023-05-19T07:17:36.283Z,80.00
2023-05-19T07:20:06.533Z,80.20
2023-05-19T07:22:36.432Z,78.00
2023-05-19T07:25:03.412Z,77.50
2023-05-19T07:27:30.214Z,76.60
2023-05-19T07:29:56.981Z,76.50
2023-05-19T07:32:23.893Z,77.20
2023-05-19T07:34:50.791Z,75.80
2023-05-19T07:37:17.683Z,74.20
2023-05-19T07:39:44.450Z,74.50
2023-05-19T07:42:11.317Z,74.60
2023-05-19T07:44:38.093Z,75.40
2023-05-19T07:47:05.578Z,74.90
2023-05-19T07:49:32.349Z,73.80
2023-05-19T07:51:59.104Z,75.10
2023-05-19T07:54:26.022Z,74.40
2023-05-19T07:56:52.820Z,72.00
2023-05-19T07:59:19.622Z,71.00
2023-05-19T08:01:46.453Z,71.80
2023-05-19T08:04:13.494Z,71.90
2023-05-19T08:06:42.573Z,72.10
2023-05-19T08:09:09.571Z,71.10
2023-05-19T08:11:36.941Z,70.60
2023-05-19T08:14:04.010Z,70.20
2023-05-19T08:16:31.046Z,68.50
2023-05-19T08:18:57.997Z,68.90
2023-05-19T08:21:24.753Z,68.60
2023-05-19T08:23:51.876Z,68.90
2023-05-19T08:26:18.665Z,69.10
2023-05-19T08:28:45.418Z,67.30
2023-05-19T08:31:12.197Z,67.80
2023-05-19T08:33:39.084Z,67.00
2023-05-19T08:36:06.552Z,67.00
2023-05-19T08:38:33.454Z,67.80
2023-05-19T08:41:00.373Z,67.50
2023-05-19T08:43:27.558Z,67.80
2023-05-19T08:45:55.512Z,67.10
2023-05-19T08:48:22.581Z,67.90
2023-05-19T08:51:27.522Z,67.40
2023-05-19T08:54:02.263Z,67.00
2023-05-19T08:56:30.632Z,66.80
2023-05-19T08:59:00.333Z,67.00
2023-05-19T09:01:28.891Z,66.60
2023-05-19T09:03:55.920Z,65.80
2023-05-19T09:06:23.332Z,64.90
2023-05-19T09:08:50.122Z,64.80
2023-05-19T09:11:16.974Z,65.00
2023-05-19T09:13:43.916Z,64.40
2023-05-19T09:16:11.647Z,65.00
2023-05-19T09:18:40.515Z,64.60
2023-05-19T09:21:07.864Z,64.10
2023-05-19T09:23:34.784Z,64.00
2023-05-19T09:26:04.474Z,62.70
2023-05-19T09:28:33.685Z,64.70
2023-05-19T09:31:06.245Z,65.70
2023-05-19T09:33:38.872Z,64.90
2023-05-19T09:36:08.348Z,65.20
2023-05-19T09:38:36.850Z,67.20
2023-05-19T09:41:05.902Z,66.60
2023-05-19T09:43:34.559Z,66.00
2023-05-19T09:46:10.068Z,64.80
2023-05-19T09:48:38.063Z,66.70
2023-05-19T09:51:07.877Z,64.80
2023-05-19T09:53:35.205Z,66.30
2023-05-19T09:56:03.967Z,65.80
2023-05-19T09:58:35.121Z,64.50
2023-05-19T10:01:04.173Z,63.60
2023-05-19T10:03:34.362Z,64.30
2023-05-19T10:06:03.831Z,63.20
2023-05-19T10:08:31.893Z,61.40
2023-05-19T10:10:59.139Z,64.10
2023-05-19T10:13:27.125Z,60.20
2023-05-19T10:15:58.750Z,60.30
2023-05-19T10:18:27.964Z,60.80
2023-05-19T10:20:57.624Z,62.20
2023-05-19T10:23:24.387Z,59.80
2023-05-19T10:25:57.634Z,59.40
2023-05-19T10:28:40.938Z,60.80
2023-05-19T10:31:16.064Z,60.70
2023-05-19T10:34:18.960Z,60.70
2023-05-19T10:36:50.370Z,60.50
2023-05-19T10:39:29.900Z,62.00
2023-05-19T10:42:16.153Z,61.00
2023-05-19T10:45:05.116Z,58.70
2023-05-19T10:47:33.562Z,55.70
2023-05-19T10:50:01.424Z,54.00
2023-05-19T10:52:30.862Z,55.80
2023-05-19T10:54:58.190Z,56.80
2023-05-19T10:57:34.243Z,56.00
2023-05-19T11:00:11.588Z,55.50
2023-05-19T11:02:43.830Z,55.90
2023-05-19T11:05:18.213Z,56.10
2023-05-19T11:08:02.269Z,56.30
2023-05-19T11:10:29.361Z,56.40
2023-05-19T11:12:58.302Z,57.80
2023-05-19T11:15:28.987Z,58.20
2023-05-19T11:17:56.686Z,59.00
2023-05-19T11:20:29.710Z,59.50
2023-05-19T11:23:11.038Z,58.90
2023-05-19T11:25:50.732Z,58.40
2023-05-19T11:28:20.907Z,56.90
2023-05-19T11:30:52.341Z,57.20
2023-05-19T11:33:26.986Z,59.10
2023-05-19T11:35:58.357Z,56.10
2023-05-19T11:38:28.040Z,56.70
2023-05-19T11:40:56.184Z,52.30
2023-05-19T11:43:26.760Z,51.10
2023-05-19T11:45:55.626Z,51.50
2023-05-19T11:48:23.252Z,51.10
2023-05-19T11:50:50.772Z,51.30
2023-05-19T11:53:19.387Z,50.00
2023-05-19T11:55:48.546Z,50.60
2023-05-19T11:58:16.625Z,51.20
2023-05-19T12:00:48.233Z,53.00
2023-05-19T12:03:15.766Z,52.50
2023-05-19T12:05:48.788Z,49.80
2023-05-19T12:08:19.749Z,51.10
2023-05-19T12:10:53.035Z,50.60
2023-05-19T12:13:20.899Z,48.90
2023-05-19T12:15:47.676Z,51.10
2023-05-19T12:18:17.055Z,50.20
2023-05-19T12:20:45.029Z,50.10
2023-05-19T12:23:12.480Z,50.70
2023-05-19T12:25:39.422Z,50.50
2023-05-19T12:28:07.502Z,50.70
2023-05-19T12:30:35.253Z,51.10
2023-05-19T12:33:03.333Z,50.20
2023-05-19T12:35:35.910Z,50.00
2023-05-19T12:38:04.770Z,48.80
2023-05-19T12:40:34.340Z,48.80
2023-05-19T12:43:01.351Z,48.50
2023-05-19T12:45:28.831Z,47.50
2023-05-19T12:47:56.521Z,48.10
2023-05-19T12:50:31.661Z,47.50
2023-05-19T12:52:59.883Z,47.80
2023-05-19T12:55:26.903Z,47.50
2023-05-19T12:57:57.971Z,47.70
2023-05-19T13:00:28.429Z,47.30
2023-05-19T13:03:08.640Z,47.70
2023-05-19T13:05:40.522Z,49.10
2023-05-19T13:08:13.795Z,47.90
2023-05-19T13:10:43.623Z,48.20
2023-05-19T13:13:11.292Z,48.60
2023-05-19T13:15:44.846Z,47.20
2023-05-19T13:18:13.697Z,46.80
2023-05-19T13:20:43.228Z,47.80
2023-05-19T13:23:11.781Z,47.80
2023-05-19T13:25:38.721Z,46.90
2023-05-19T13:28:06.103Z,48.70
2023-05-19T13:30:35.625Z,49.10
2023-05-19T13:33:03.052Z,48.90
2023-05-19T13:35:36.586Z,48.60
2023-05-19T13:38:10.089Z,49.40
2023-05-19T13:40:37.760Z,49.00
2023-05-19T13:43:04.993Z,49.00
2023-05-19T13:45:31.839Z,45.60
2023-05-19T13:47:58.724Z,46.40
2023-05-19T13:50:25.657Z,46.10
2023-05-19T13:52:52.450Z,45.90
2023-05-19T13:55:19.545Z,46.50
2023-05-19T13:57:46.326Z,46.50
2023-05-19T14:00:13.751Z,46.90
2023-05-19T14:02:40.746Z,47.40
2023-05-19T14:05:07.984Z,48.00
2023-05-19T14:07:35.505Z,47.00
2023-05-19T14:10:05.415Z,48.00
2023-05-19T14:12:41.586Z,48.60
2023-05-19T14:15:14.575Z,50.00
2023-05-19T14:17:41.798Z,48.10
2023-05-19T14:20:09.533Z,47.60
2023-05-19T14:22:36.365Z,46.80
2023-05-19T14:25:03.628Z,46.30
2023-05-19T14:27:30.519Z,47.40
2023-05-19T14:29:57.494Z,47.40
2023-05-19T14:32:24.329Z,48.30
2023-05-19T14:34:52.826Z,49.90
2023-05-19T14:37:20.449Z,48.90
2023-05-19T14:39:47.222Z,47.40
2023-05-19T14:42:14.047Z,45.20
2023-05-19T14:44:40.831Z,43.60
2023-05-19T14:47:07.750Z,42.10
2023-05-19T14:49:34.657Z,40.40
2023-05-19T14:52:01.575Z,42.10
2023-05-19T14:54:28.342Z,42.90
2023-05-19T14:56:55.156Z,42.90
2023-05-19T14:59:22.111Z,42.90
2023-05-19T15:01:48.898Z,43.20
2023-05-19T15:04:15.977Z,43.80
2023-05-19T15:06:42.875Z,44.90
2023-05-19T15:09:10.660Z,45.70
2023-05-19T15:11:37.435Z,46.50
2023-05-19T15:14:04.281Z,48.30
2023-05-19T15:16:31.202Z,47.80
2023-05-19T15:18:58.001Z,47.70
2023-05-19T15:21:24.781Z,46.60
2023-05-19T15:23:51.623Z,45.10
2023-05-19T15:26:18.452Z,44.00
2023-05-19T15:28:45.439Z,44.90
2023-05-19T15:31:12.281Z,45.40
2023-05-19T15:33:39.102Z,46.70
2023-05-19T15:36:06.238Z,47.90
2023-05-19T15:38:36.184Z,48.90
2023-05-19T15:41:07.950Z,49.50
2023-05-19T15:43:35.029Z,49.80
2023-05-19T15:46:01.964Z,50.70
2023-05-19T15:48:28.827Z,50.90
2023-05-19T15:50:58.021Z,51.30
2023-05-19T15:53:25.779Z,51.80
2023-05-19T15:55:52.712Z,52.10
2023-05-19T15:58:19.474Z,52.00
2023-05-19T16:00:46.333Z,51.70
2023-05-19T16:03:13.224Z,52.10
2023-05-19T16:05:40.256Z,52.20
2023-05-19T16:08:08.613Z,52.10
2023-05-19T16:10:35.929Z,52.50
2023-05-19T16:13:02.750Z,53.00
2023-05-19T16:15:29.523Z,52.60
2023-05-19T16:17:57.512Z,52.20
2023-05-19T16:20:27.774Z,52.60
2023-05-19T16:22:55.380Z,53.20
2023-05-19T16:25:22.786Z,53.40
2023-05-19T16:27:50.260Z,52.00
2023-05-19T16:30:17.344Z,50.40
2023-05-19T16:32:44.275Z,50.00
2023-05-19T16:35:11.329Z,50.40
2023-05-19T16:37:38.114Z,50.40
2023-05-19T16:40:05.717Z,50.80
2023-05-19T16:42:32.723Z,51.60
2023-05-19T16:44:59.483Z,52.10
2023-05-19T16:47:26.280Z,52.80
2023-05-19T16:49:53.171Z,53.10
2023-05-19T16:52:20.097Z,53.40
2023-05-19T16:54:47.334Z,54.10
2023-05-19T16:57:16.657Z,54.60
2023-05-19T16:59:43.438Z,55.10
2023-05-19T17:02:10.337Z,55.40
2023-05-19T17:04:37.229Z,55.60
2023-05-19T17:07:04.401Z,56.00
2023-05-19T17:09:31.203Z,56.10
2023-05-19T17:11:57.984Z,56.70
2023-05-19T17:14:24.747Z,57.00
2023-05-19T17:16:52.519Z,57.60
2023-05-19T17:19:19.405Z,57.80
2023-05-19T17:21:46.318Z,58.40
2023-05-19T17:24:13.169Z,58.50
2023-05-19T17:26:40.025Z,58.60
2023-05-19T17:29:06.930Z,58.60
2023-05-19T17:31:33.730Z,58.90
2023-05-19T17:34:00.568Z,59.10
2023-05-19T17:36:27.457Z,59.30
2023-05-19T17:38:54.227Z,59.70
2023-05-19T17:41:21.805Z,60.20
2023-05-19T17:43:48.605Z,60.60
2023-05-19T17:46:15.497Z,60.30
2023-05-19T17:48:42.369Z,60.70
2023-05-19T17:51:09.457Z,60.70
2023-05-19T17:53:36.854Z,60.80
2023-05-19T17:56:06.859Z,61.00
2023-05-19T17:58:34.196Z,61.30
2023-05-19T18:01:01.275Z,61.40
2023-05-19T18:03:28.553Z,62.20
2023-05-19T18:05:55.836Z,62.40
2023-05-19T18:08:22.919Z,62.80
2023-05-19T18:10:52.470Z,62.80
2023-05-19T18:13:19.239Z,63.10
2023-05-19T18:15:46.169Z,63.40
2023-05-19T18:18:12.961Z,63.80
2023-05-19T18:20:41.113Z,64.10
2023-05-19T18:23:07.928Z,64.20
2023-05-19T18:25:35.585Z,64.30
2023-05-19T18:28:02.382Z,64.70
2023-05-19T18:30:29.230Z,65.00
2023-05-19T18:32:56.182Z,65.10
2023-05-19T18:35:23.019Z,65.70
2023-05-19T18:37:49.866Z,66.00
2023-05-19T18:40:16.644Z,66.20
2023-05-19T18:42:43.490Z,66.50
2023-05-19T18:45:10.607Z,66.80
2023-05-19T18:47:37.422Z,67.20
2023-05-19T18:50:04.675Z,67.50
2023-05-19T18:52:31.598Z,68.00
2023-05-19T18:55:00.649Z,68.30
2023-05-19T18:57:27.425Z,68.80
2023-05-19T18:59:54.226Z,69.30
2023-05-19T19:02:20.988Z,69.70
2023-05-19T19:04:47.910Z,69.90
2023-05-19T19:07:14.805Z,70.20
2023-05-19T19:09:43.506Z,70.70
2023-05-19T19:12:10.779Z,71.30
2023-05-19T19:14:38.399Z,71.70
2023-05-19T19:17:05.514Z,72.30
2023-05-19T19:19:32.979Z,72.50
2023-05-19T19:21:59.807Z,72.70
2023-05-19T19:24:28.323Z,73.00
2023-05-19T19:26:55.145Z,73.40
2023-05-19T19:29:22.108Z,73.70
2023-05-19T19:31:49.124Z,74.40
2023-05-19T19:34:17.650Z,74.60
2023-05-19T19:36:44.794Z,75.20
2023-05-19T19:39:11.951Z,75.70
2023-05-19T19:41:40.790Z,76.20
2023-05-19T19:44:07.563Z,76.50
2023-05-19T19:46:34.608Z,76.80
2023-05-19T19:49:01.417Z,77.30
2023-05-19T19:51:28.498Z,77.70
2023-05-19T19:53:55.362Z,78.10
2023-05-19T19:56:24.497Z,78.40
2023-05-19T19:58:51.548Z,78.70
2023-05-19T20:01:20.574Z,79.10
2023-05-19T20:03:47.998Z,79.50
2023-05-19T20:06:14.982Z,80.00
2023-05-19T20:08:41.771Z,80.40
2023-05-19T20:11:08.829Z,81.10
2023-05-19T20:13:35.834Z,81.30
2023-05-19T20:16:02.716Z,82.00
2023-05-19T20:18:29.782Z,82.70
2023-05-19T20:20:56.929Z,83.20
2023-05-19T20:23:23.881Z,84.40
2023-05-19T20:26:06.745Z,85.20
2023-05-19T20:28:37.526Z,85.70
2023-05-19T20:31:06.162Z,86.40
2023-05-19T20:33:32.977Z,87.00
2023-05-19T20:35:59.822Z,87.60
2023-05-19T20:38:26.991Z,89.10
2023-05-19T20:40:54.466Z,89.40
2023-05-19T20:43:21.454Z,90.00
2023-05-19T20:45:48.459Z,90.30
2023-05-19T20:48:18.215Z,90.60
2023-05-19T20:50:45.028Z,91.10
2023-05-19T20:53:11.838Z,91.50
2023-05-19T20:55:39.267Z,91.80
2023-05-19T20:58:07.110Z,92.00
2023-05-19T21:00:34.274Z,92.40
2023-05-19T21:03:01.396Z,92.90
2023-05-19T21:05:28.486Z,93.20
2023-05-19T21:07:55.503Z,93.60
2023-05-19T21:10:22.299Z,93.90
2023-05-19T21:12:49.114Z,94.10
2023-05-19T21:15:15.970Z,94.50
2023-05-19T21:17:42.787Z,94.80
2023-05-19T21:20:10.514Z,95.20
2023-05-19T21:22:37.300Z,95.40
2023-05-19T21:25:04.647Z,95.80
2023-05-19T21:27:32.816Z,96.10
2023-05-19T21:29:59.970Z,96.40
2023-05-19T21:32:27.706Z,96.90
2023-05-19T21:34:54.488Z,97.20
2023-05-19T21:37:21.727Z,97.60
2023-05-19T21:39:48.914Z,97.90
2023-05-19T21:42:15.703Z,98.20
2023-05-19T21:44:42.473Z,98.50
2023-05-19T21:47:09.248Z,98.90
2023-05-19T21:49:36.112Z,99.40
2023-05-19T21:52:02.920Z,99.80
2023-05-19T21:54:30.008Z,99.90
2023-05-19T21:56:56.760Z,99.90
2023-05-19T21:59:24.603Z,99.90
2023-05-19T22:01:51.463Z,99.90
2023-05-19T22:04:18.854Z,99.90
2023-05-19T22:06:46.048Z,99.90
2023-05-19T22:09:13.304Z,99.90
2023-05-19T22:11:40.422Z,99.90
2023-05-19T22:14:07.202Z,99.90
2023-05-19T22:16:34.069Z,99.90
2023-05-19T22:19:01.006Z,99.90
2023-05-19T22:21:27.879Z,99.90
2023-05-19T22:23:54.803Z,99.90
2023-05-19T22:26:21.948Z,99.90
2023-05-19T22:28:50.053Z,99.90
2023-05-19T22:31:17.533Z,99.90
2023-05-19T22:33:44.497Z,99.90
2023-05-19T22:36:11.534Z,99.90
2023-05-19T22:38:38.338Z,99.90
2023-05-19T22:41:05.422Z,99.90
2023-05-19T22:43:32.244Z,99.90
2023-05-19T22:45:59.083Z,99.90
2023-05-19T22:48:26.022Z,99.90
2023-05-19T22:50:52.855Z,99.90
2023-05-19T22:53:19.606Z,99.90
2023-05-19T22:55:46.452Z,99.90
2023-05-19T22:58:13.249Z,99.90
2023-05-19T23:00:40.035Z,99.90
2023-05-19T23:03:06.843Z,99.90
2023-05-19T23:05:34.348Z,99.90
2023-05-19T23:08:03.415Z,99.90
2023-05-19T23:10:30.227Z,99.90
2023-05-19T23:12:57.027Z,99.90
2023-05-19T23:15:23.807Z,99.90
2023-05-19T23:17:50.791Z,99.90
2023-05-19T23:20:17.585Z,99.90
2023-05-19T23:22:44.371Z,99.90
2023-05-19T23:25:11.146Z,99.90
2023-05-19T23:27:37.958Z,99.90
2023-05-19T23:30:05.703Z,99.90
2023-05-19T23:32:32.510Z,99.90
2023-05-19T23:35:12.721Z,99.90
2023-05-19T23:37:41.878Z,99.90
2023-05-19T23:40:09.069Z,99.90
2023-05-19T23:42:36.931Z,99.90
2023-05-19T23:45:04.479Z,99.90
2023-05-19T23:47:31.432Z,99.90
2023-05-19T23:49:58.239Z,99.90
2023-05-19T23:52:25.040Z,99.90
2023-05-19T23:54:51.795Z,99.90
2023-05-19T23:57:18.574Z,99.90
2023-05-19T23:59:45.387Z,99.90
